createdAt,value
2018-08-16T00:01:53.875Z,4.73
2018-08-16T00:06:57.560Z,4.73
2018-08-16T00:12:01.292Z,5.90
2018-08-16T00:17:05.211Z,4.17
2018-08-16T00:22:08.768Z,4.63
2018-08-16T00:27:12.567Z,4.30
2018-08-16T00:32:16.294Z,5.20
2018-08-16T00:37:20.017Z,5.00
2018-08-16T00:42:23.548Z,5.90
2018-08-16T00:47:27.144Z,4.90
2018-08-16T00:52:30.865Z,5.47
2018-08-16T00:57:34.582Z,5.37
2018-08-16T01:02:38.298Z,4.80
2018-08-16T01:07:41.971Z,5.97
2018-08-16T01:12:45.543Z,6.97
2018-08-16T01:17:49.198Z,7.17
2018-08-16T01:22:52.927Z,6.83
2018-08-16T01:27:56.742Z,7.10
2018-08-16T01:33:00.482Z,8.87
2018-08-16T01:38:04.090Z,7.00
2018-08-16T01:43:08.816Z,7.10
2018-08-16T01:48:13.091Z,6.93
2018-08-16T01:53:16.629Z,8.43
2018-08-16T01:58:20.368Z,7.17
2018-08-16T02:03:24.047Z,10.03
2018-08-16T02:08:27.672Z,10.80
2018-08-16T02:13:31.238Z,9.60
2018-08-16T02:18:34.867Z,9.70
2018-08-16T02:23:38.414Z,11.07
2018-08-16T02:28:42.082Z,10.00
2018-08-16T02:33:45.712Z,11.83
2018-08-16T02:38:49.591Z,12.20
2018-08-16T02:43:53.162Z,11.80
2018-08-16T02:48:56.866Z,11.63
2018-08-16T02:54:00.460Z,14.23
2018-08-16T02:59:04.128Z,14.17
2018-08-16T03:04:07.853Z,11.33
2018-08-16T03:09:12.010Z,15.30
2018-08-16T03:14:15.667Z,13.07
2018-08-16T03:19:19.423Z,13.43
2018-08-16T03:24:22.956Z,15.00
2018-08-16T03:29:26.728Z,15.50
2018-08-16T03:34:30.337Z,14.40
2018-08-16T03:39:34.129Z,16.37
2018-08-16T03:44:37.752Z,14.13
2018-08-16T03:49:41.416Z,13.53
2018-08-16T03:54:45.067Z,15.33
2018-08-16T03:59:48.738Z,14.13
2018-08-16T04:04:52.358Z,15.63
2018-08-16T04:09:56.033Z,14.77
2018-08-16T04:14:59.596Z,14.73
2018-08-16T04:20:03.897Z,16.33
2018-08-16T04:25:07.465Z,16.23
2018-08-16T04:30:17.111Z,15.03
2018-08-16T04:35:20.744Z,15.70
2018-08-16T04:40:24.361Z,15.90
2018-08-16T04:45:27.945Z,13.77
2018-08-16T04:50:31.579Z,17.97
2018-08-16T04:55:35.125Z,17.13
2018-08-16T05:00:38.868Z,18.00
2018-08-16T05:05:42.495Z,15.50
2018-08-16T05:10:46.125Z,17.17
2018-08-16T05:15:49.830Z,16.40
2018-08-16T05:20:53.932Z,16.97
2018-08-16T05:25:57.582Z,18.33
2018-08-16T05:31:01.273Z,17.07
2018-08-16T05:36:05.158Z,17.10
2018-08-16T05:41:08.764Z,15.57
2018-08-16T05:46:22.483Z,12.90
2018-08-16T05:51:26.109Z,13.43
2018-08-16T05:56:29.735Z,15.73
2018-08-16T06:01:33.517Z,13.87
2018-08-16T06:06:37.075Z,13.40
2018-08-16T06:11:40.686Z,11.10
2018-08-16T06:16:44.420Z,11.53
2018-08-16T06:21:48.087Z,9.30
2018-08-16T06:26:51.893Z,9.73
2018-08-16T06:31:55.631Z,9.07
2018-08-16T06:36:59.292Z,9.73
2018-08-16T06:42:03.262Z,9.20
2018-08-16T06:47:06.922Z,8.53
2018-08-16T06:52:10.634Z,8.60
2018-08-16T06:57:14.970Z,10.40
2018-08-16T07:02:18.618Z,10.00
2018-08-16T07:07:22.301Z,11.13
2018-08-16T07:12:26.018Z,10.90
2018-08-16T07:17:29.777Z,10.17
2018-08-16T07:22:34.693Z,12.13
2018-08-16T07:27:38.593Z,10.53
2018-08-16T07:32:42.224Z,10.13
2018-08-16T07:37:45.853Z,10.00
2018-08-16T07:42:49.491Z,10.53
2018-08-16T07:47:53.541Z,11.13
2018-08-16T07:52:57.186Z,9.70
2018-08-16T07:58:00.836Z,8.00
2018-08-16T08:03:04.484Z,9.43
2018-08-16T08:08:08.935Z,8.50
2018-08-16T08:13:12.725Z,7.43
2018-08-16T08:18:16.361Z,11.07
2018-08-16T08:23:25.780Z,7.83
2018-08-16T08:28:29.429Z,6.27
2018-08-16T08:33:33.142Z,7.17
2018-08-16T08:38:36.683Z,8.73
2018-08-16T08:43:51.559Z,6.97
2018-08-16T08:48:55.341Z,8.23
2018-08-16T08:54:43.993Z,6.33
2018-08-16T08:59:47.578Z,7.87
2018-08-16T09:04:51.289Z,6.60
2018-08-16T09:11:10.348Z,8.10
2018-08-16T09:16:19.261Z,8.67
2018-08-16T09:21:22.790Z,9.53
2018-08-16T09:26:32.911Z,7.40
2018-08-16T09:31:47.959Z,5.87
2018-08-16T09:36:52.353Z,6.97
2018-08-16T09:41:57.072Z,5.97
2018-08-16T09:47:14.203Z,5.93
2018-08-16T09:52:19.014Z,7.77
2018-08-16T09:57:22.636Z,6.93
2018-08-16T10:02:26.317Z,6.67
2018-08-16T10:07:29.916Z,7.63
2018-08-16T10:12:33.745Z,5.83
2018-08-16T10:17:37.432Z,4.20
2018-08-16T10:22:41.451Z,7.03
2018-08-16T10:27:44.946Z,5.13
2018-08-16T10:32:48.698Z,4.53
2018-08-16T10:37:52.352Z,5.90
2018-08-16T10:42:55.956Z,5.43
2018-08-16T10:47:59.491Z,4.63
2018-08-16T10:53:03.209Z,5.00
2018-08-16T10:58:06.978Z,4.93
2018-08-16T11:03:13.659Z,5.50
2018-08-16T11:08:17.397Z,5.70
2018-08-16T11:13:21.210Z,6.50
2018-08-16T11:18:24.802Z,5.93
2018-08-16T11:23:28.387Z,5.07
2018-08-16T11:28:32.240Z,5.40
2018-08-16T11:33:35.978Z,5.43
2018-08-16T11:38:39.820Z,5.37
2018-08-16T11:43:43.921Z,5.57
2018-08-16T11:48:47.730Z,5.03
2018-08-16T11:53:51.566Z,4.90
2018-08-16T11:58:56.102Z,6.70
2018-08-16T12:03:59.705Z,5.47
2018-08-16T12:09:03.623Z,6.00
2018-08-16T12:14:07.616Z,5.57
2018-08-16T12:19:11.571Z,5.87
2018-08-16T12:24:15.348Z,4.40
2018-08-16T12:29:18.991Z,6.27
2018-08-16T12:34:22.603Z,4.83
2018-08-16T12:39:40.376Z,4.93
2018-08-16T12:44:45.361Z,6.20
2018-08-16T12:49:48.987Z,4.93
2018-08-16T12:54:52.665Z,5.43
2018-08-16T12:59:56.329Z,4.50
2018-08-16T13:05:00.098Z,4.83
2018-08-16T13:10:04.248Z,4.90
2018-08-16T13:15:15.954Z,3.90
2018-08-16T13:20:19.890Z,3.73
2018-08-16T13:25:25.332Z,4.30
2018-08-16T13:30:30.347Z,4.03
2018-08-16T13:35:46.987Z,4.70
2018-08-16T13:40:52.947Z,4.57
2018-08-16T13:45:57.999Z,3.50
2018-08-16T13:51:02.483Z,4.07
2018-08-16T13:56:07.922Z,4.67
2018-08-16T14:01:11.517Z,3.67
2018-08-16T14:06:15.177Z,4.33
2018-08-16T14:11:18.786Z,5.47
2018-08-16T14:16:22.390Z,4.10
2018-08-16T14:21:26.019Z,4.17
2018-08-16T14:26:29.633Z,5.00
2018-08-16T14:31:33.716Z,4.00
2018-08-16T14:36:38.041Z,4.50
2018-08-16T14:41:42.051Z,4.63
2018-08-16T14:46:45.666Z,3.83
2018-08-16T14:51:49.370Z,4.23
2018-08-16T14:56:53.073Z,4.60
2018-08-16T15:01:56.615Z,4.73
2018-08-16T15:07:00.355Z,3.77
2018-08-16T15:12:03.894Z,4.83
2018-08-16T15:17:07.537Z,4.63
2018-08-16T15:22:28.997Z,4.70
2018-08-16T15:27:32.683Z,5.40
2018-08-16T15:32:36.405Z,6.30
2018-08-16T15:37:40.198Z,5.30
2018-08-16T15:42:43.822Z,5.83
2018-08-16T15:47:47.465Z,5.27
2018-08-16T15:52:51.029Z,5.33
2018-08-16T15:57:54.661Z,6.33
2018-08-16T16:02:58.187Z,5.23
2018-08-16T16:08:01.891Z,6.80
2018-08-16T16:13:05.510Z,6.03
2018-08-16T16:18:09.329Z,7.33
2018-08-16T16:23:12.907Z,8.23
2018-08-16T16:28:17.526Z,6.50
2018-08-16T16:33:21.165Z,6.07
2018-08-16T16:38:25.082Z,6.67
2018-08-16T16:43:28.624Z,6.87
2018-08-16T16:48:32.452Z,6.07
2018-08-16T16:53:36.108Z,7.17
2018-08-16T16:58:40.437Z,6.80
2018-08-16T17:03:44.582Z,6.20
2018-08-16T17:08:48.240Z,7.47
2018-08-16T17:13:52.878Z,7.20
2018-08-16T17:18:56.581Z,7.97
2018-08-16T17:24:00.630Z,6.53
2018-08-16T17:29:04.291Z,6.63
2018-08-16T17:34:07.929Z,7.30
2018-08-16T17:39:12.024Z,7.43
2018-08-16T17:44:15.570Z,7.90
2018-08-16T17:49:19.240Z,7.73
2018-08-16T17:54:22.759Z,8.73
2018-08-16T17:59:26.746Z,7.70
2018-08-16T18:04:30.400Z,8.67
2018-08-16T18:09:34.039Z,9.50
2018-08-16T18:14:38.082Z,10.10
2018-08-16T18:19:41.974Z,9.70
2018-08-16T18:24:45.608Z,9.63
2018-08-16T18:29:49.281Z,9.93
2018-08-16T18:34:53.046Z,9.53
2018-08-16T18:39:57.043Z,10.43
2018-08-16T18:45:00.747Z,10.47
2018-08-16T18:50:04.467Z,10.87
2018-08-16T18:55:08.396Z,11.05
2018-08-16T19:00:14.595Z,8.67
2018-08-16T19:05:18.383Z,8.90
2018-08-16T19:10:22.009Z,8.23
2018-08-16T19:15:25.530Z,8.40
2018-08-16T19:20:29.160Z,7.67
2018-08-16T19:25:32.759Z,6.97
2018-08-16T19:30:36.377Z,7.57
2018-08-16T19:35:39.965Z,7.33
2018-08-16T19:40:43.588Z,8.47
2018-08-16T19:45:47.127Z,6.73
2018-08-16T19:50:51.441Z,6.90
2018-08-16T19:55:55.064Z,6.13
2018-08-16T20:00:58.967Z,6.90
2018-08-16T20:06:03.026Z,7.77
2018-08-16T20:11:07.428Z,7.90
2018-08-16T20:16:11.085Z,8.17
2018-08-16T20:21:14.764Z,8.87
2018-08-16T20:26:18.419Z,9.17
2018-08-16T20:31:22.796Z,10.07
2018-08-16T20:36:26.483Z,8.53
2018-08-16T20:41:30.222Z,8.83
2018-08-16T20:46:34.575Z,7.37
2018-08-16T20:51:38.859Z,9.37
2018-08-16T20:56:42.992Z,9.73
2018-08-16T21:01:49.284Z,8.47
2018-08-16T21:06:53.893Z,9.30
2018-08-16T21:11:58.455Z,8.47
2018-08-16T21:17:02.098Z,8.30
2018-08-16T21:22:05.987Z,9.27
2018-08-16T21:27:09.641Z,9.73
2018-08-16T21:32:13.493Z,9.33
2018-08-16T21:37:16.979Z,9.97
2018-08-16T21:42:20.588Z,10.67
2018-08-16T21:47:24.913Z,9.03
2018-08-16T21:52:28.569Z,10.83
2018-08-16T21:57:32.718Z,10.23
2018-08-16T22:02:36.413Z,10.67
2018-08-16T22:08:12.913Z,10.10
2018-08-16T22:13:16.557Z,11.13
2018-08-16T22:18:20.292Z,11.27
2018-08-16T22:23:23.947Z,9.53
2018-08-16T22:28:27.848Z,10.73
2018-08-16T22:33:31.967Z,11.57
2018-08-16T22:38:35.487Z,12.53
2018-08-16T22:43:39.298Z,12.87
2018-08-16T22:48:42.808Z,11.60
2018-08-16T22:53:46.436Z,12.00
2018-08-16T22:58:50.090Z,10.00
2018-08-16T23:03:53.715Z,13.17
2018-08-16T23:08:57.389Z,12.27
2018-08-16T23:14:01.051Z,12.73
2018-08-16T23:19:04.586Z,13.60
2018-08-16T23:24:08.314Z,13.23
2018-08-16T23:29:12.562Z,11.97
2018-08-16T23:34:16.808Z,13.17
2018-08-16T23:39:20.993Z,10.97
2018-08-16T23:44:24.662Z,12.73
2018-08-16T23:49:28.318Z,10.40
2018-08-16T23:54:32.010Z,11.13
2018-08-16T23:59:35.833Z,14.27
